EFVA

Vaasa

Airport
ICAO code
EFVA
Summary
ICAO Region
EUR
ICAO Territory
Location

Vaasa,

Coordinates
63° 2' 45" N , 21° 45' 41" E
KCC
Airport CFIT
Altimeter Temperature Error Correction
Airport GND
Aircraft Ground De/Anti Icing
Airport WX
Freezing Rain
Metar
Observation
EFVA 081820Z AUTO 06006KT 9000 -SN OVC037 M05/M07 Q1002
Station
Vaasa
Date/Time
2022-12-08 18:20:00
Wind direction
60°
Wind speed
06 kts
Lowest cloud amount
overcast
Temperature
-5°C
Dew point
-7°C
Humidity
85%
QNH
1002 hPa
Weather condition
n/a

Description

Vaasa Airport (Vaasan lentoasema/Vasa flygplats) serves the Finnish city of Vaasa and is located 5.6 nm southeast of the city.

Climatology

Subarctic climate (Köppen climate classification Dfc) - long, usually very cold winters, and short, cool to mild summers.

Runways

Designator Length Width Surface Rops
16/34 2660 48 ASP Yes/Yes

Airport map

Aerial View

SKYbrary Partners:

Safety knowledge contributed by: